Time;durP1;ratioP1;P1;durP2;ratioP2;P2;SDS_P1;SDS_P2;PMS_P1;PMS_P2;Temp;Humidity;BMP_temperature;BMP_pressure;BME280_temperature;BME280_humidity;BME280_pressure;Samples;Min_cycle;Max_cycle;Signal;HPM_P1;HPM_P2
2022/08/23 00:01:19;;;;;;;3.20;3.00;;;24.70;40.00;;;;;;5093891;28;20535;-88
2022/08/23 00:03:46;;;;;;;4.43;4.03;;;24.60;39.80;;;;;;5077842;28;20459;-88
2022/08/23 00:06:15;;;;;;;6.73;3.50;;;24.50;39.90;;;;;;5074408;28;20447;-88
2022/08/23 00:08:44;;;;;;;3.30;3.10;;;24.50;40.00;;;;;;5095453;28;20464;-90
2022/08/23 00:11:27;;;;;;;5.13;3.77;;;24.50;40.00;;;;;;5049744;28;20448;-88
2022/08/23 00:13:55;;;;;;;3.00;2.70;;;24.50;40.20;;;;;;5075489;28;20486;-88
2022/08/23 00:16:22;;;;;;;3.37;3.07;;;24.50;40.00;;;;;;5064598;28;20455;-89
2022/08/23 00:18:49;;;;;;;4.87;3.00;;;24.50;40.00;;;;;;5059189;28;20447;-87
2022/08/23 00:21:17;;;;;;;4.70;3.20;;;24.50;39.90;;;;;;5075037;28;20444;-89
2022/08/23 00:23:44;;;;;;;3.80;3.20;;;24.40;40.00;;;;;;5081834;28;20467;-88
2022/08/23 00:26:11;;;;;;;3.53;3.33;;;24.40;39.50;;;;;;5079061;28;20998;-88
2022/08/23 00:28:40;;;;;;;4.13;3.53;;;24.30;40.00;;;;;;5073862;28;20462;-90
2022/08/23 00:31:07;;;;;;;4.07;3.70;;;24.30;40.20;;;;;;5079781;28;20451;-88
2022/08/23 00:33:34;;;;;;;3.47;3.17;;;24.30;40.40;;;;;;5081049;28;20474;-88
2022/08/23 00:36:01;;;;;;;3.20;3.00;;;24.30;40.50;;;;;;5087994;28;20451;-89
2022/08/23 00:38:28;;;;;;;3.97;3.57;;;24.20;40.60;;;;;;5099187;28;20458;-87
2022/08/23 00:40:55;;;;;;;4.13;3.03;;;24.10;40.60;;;;;;5066625;28;20466;-88
2022/08/23 00:49:12;;;;;;;4.00;3.67;;;24.00;40.90;;;;;;5080153;28;20557;-89
2022/08/23 00:51:44;;;;;;;5.20;3.40;;;23.90;40.90;;;;;;5073161;28;20442;-88
2022/08/23 00:54:14;;;;;;;4.00;3.60;;;23.90;41.10;;;;;;5046129;28;20447;-87
2022/08/23 00:56:42;;;;;;;4.00;3.70;;;23.90;41.10;;;;;;5072116;28;21119;-89
2022/08/23 00:59:12;;;;;;;3.20;3.00;;;23.90;41.20;;;;;;5065166;28;20946;-89
2022/08/23 01:01:42;;;;;;;3.80;3.40;;;23.80;41.10;;;;;;5071358;28;20463;-87
2022/08/23 01:04:12;;;;;;;4.77;3.53;;;23.80;41.50;;;;;;5071534;28;21080;-88
2022/08/23 01:06:44;;;;;;;5.40;4.10;;;23.80;41.60;;;;;;5068182;28;20443;-88
2022/08/23 01:09:15;;;;;;;4.13;3.67;;;23.70;41.40;;;;;;5097063;28;20490;-87
2022/08/23 01:11:49;;;;;;;5.60;3.60;;;23.70;41.40;;;;;;5099267;28;20443;-90
2022/08/23 01:14:21;;;;;;;4.43;4.00;;;23.70;41.50;;;;;;5078908;28;20972;-88
2022/08/23 01:16:56;;;;;;;4.40;3.77;;;23.70;41.50;;;;;;5064800;28;20547;-88
2022/08/23 01:19:28;;;;;;;3.80;3.50;;;23.70;41.50;;;;;;5082906;28;20451;-88
2022/08/23 01:22:03;;;;;;;3.93;3.20;;;23.60;41.50;;;;;;5096448;28;20447;-88
2022/08/23 01:24:32;;;;;;;6.93;4.00;;;23.60;41.60;;;;;;5081389;28;20529;-89
2022/08/23 01:27:00;;;;;;;4.60;3.90;;;23.60;41.90;;;;;;5070587;28;20435;-88
2022/08/23 01:29:27;;;;;;;4.40;3.70;;;23.50;41.80;;;;;;5055509;28;20463;-89
2022/08/23 01:31:55;;;;;;;4.30;3.70;;;23.50;41.70;;;;;;5101878;28;20450;-88
2022/08/23 01:34:26;;;;;;;3.90;3.50;;;23.50;42.10;;;;;;5065320;28;20455;-88
2022/08/23 01:36:53;;;;;;;5.00;3.97;;;23.40;42.30;;;;;;5081538;28;20446;-88
2022/08/23 01:39:20;;;;;;;4.10;3.80;;;23.40;42.20;;;;;;5071318;28;20440;-88
2022/08/23 01:41:50;;;;;;;5.20;4.20;;;23.40;42.20;;;;;;5079606;28;20466;-88
2022/08/23 01:44:17;;;;;;;4.50;4.10;;;23.30;42.50;;;;;;5081553;28;20446;-88
2022/08/23 01:46:45;;;;;;;5.30;4.00;;;23.20;42.50;;;;;;5093940;28;20471;-88
2022/08/23 01:49:14;;;;;;;4.33;3.93;;;23.20;42.90;;;;;;5050867;28;20463;-89
2022/08/23 01:51:41;;;;;;;4.50;4.20;;;23.10;42.70;;;;;;5049360;28;20446;-88
2022/08/23 01:54:08;;;;;;;3.80;3.50;;;23.10;43.10;;;;;;5062798;28;20444;-89
2022/08/23 01:56:37;;;;;;;4.33;3.93;;;23.00;43.20;;;;;;5079842;28;20461;-90
2022/08/23 01:59:06;;;;;;;5.73;4.20;;;23.00;43.70;;;;;;5063907;28;20514;-88
2022/08/23 02:01:39;;;;;;;4.10;3.73;;;22.90;43.70;;;;;;5076096;28;20451;-85
2022/08/23 02:04:06;;;;;;;4.60;4.20;;;22.90;43.80;;;;;;5089563;28;20785;-88
2022/08/23 02:06:34;;;;;;;4.23;3.93;;;22.90;43.60;;;;;;5086408;28;20443;-88
2022/08/23 02:09:03;;;;;;;4.53;4.13;;;22.90;43.70;;;;;;5083436;28;20900;-90
2022/08/23 02:11:35;;;;;;;4.27;3.90;;;22.90;43.50;;;;;;5084637;28;20451;-90
2022/08/23 02:14:05;;;;;;;4.23;3.83;;;22.80;43.20;;;;;;5064249;28;20498;-89
2022/08/23 02:16:45;;;;;;;4.03;3.70;;;22.70;43.80;;;;;;5081086;28;20443;-88
2022/08/23 02:19:14;;;;;;;4.73;4.23;;;22.60;43.80;;;;;;5082495;28;20494;-89
2022/08/23 02:21:42;;;;;;;4.50;4.20;;;22.60;44.20;;;;;;5079179;28;20447;-88
2022/08/23 02:24:16;;;;;;;5.10;4.63;;;22.60;44.10;;;;;;5075849;28;20512;-88
2022/08/23 02:26:49;;;;;;;4.73;4.33;;;22.70;44.30;;;;;;5069324;28;20462;-88
2022/08/23 02:29:19;;;;;;;5.63;3.90;;;22.60;44.20;;;;;;5063866;28;20884;-88
2022/08/23 02:31:48;;;;;;;4.17;3.77;;;22.60;44.10;;;;;;5071698;28;20509;-88
2022/08/23 02:34:17;;;;;;;5.50;4.20;;;22.60;43.70;;;;;;5080256;28;20452;-88
2022/08/23 02:36:45;;;;;;;4.20;3.90;;;22.60;43.80;;;;;;5077387;28;20456;-88
2022/08/23 02:39:15;;;;;;;5.20;4.40;;;22.50;43.80;;;;;;5078825;28;20447;-88
2022/08/23 02:41:43;;;;;;;4.63;4.23;;;22.40;44.00;;;;;;5045329;28;21246;-89
2022/08/23 02:44:12;;;;;;;5.20;4.27;;;22.40;44.10;;;;;;5077152;28;20459;-88
2022/08/23 02:46:40;;;;;;;4.47;4.10;;;22.40;44.40;;;;;;5064971;28;20439;-88
2022/08/23 02:49:09;;;;;;;5.73;4.10;;;22.40;44.50;;;;;;5071624;28;21207;-88
2022/08/23 02:51:36;;;;;;;5.13;4.60;;;22.40;44.30;;;;;;5087693;28;20546;-88
2022/08/23 02:54:05;;;;;;;4.40;4.10;;;22.40;44.70;;;;;;5062349;28;20533;-88
2022/08/23 02:56:32;;;;;;;4.30;4.00;;;22.40;44.70;;;;;;5064108;28;20455;-88
2022/08/23 02:59:00;;;;;;;5.53;4.50;;;22.40;44.80;;;;;;5061376;28;20434;-89
2022/08/23 03:01:30;;;;;;;5.50;4.03;;;22.30;44.70;;;;;;5043023;28;20436;-88
2022/08/23 03:04:04;;;;;;;5.93;4.53;;;22.30;44.50;;;;;;5059172;28;20470;-88
2022/08/23 03:06:33;;;;;;;5.00;4.50;;;22.30;44.60;;;;;;5066339;28;20447;-88
2022/08/23 03:09:00;;;;;;;9.20;4.53;;;22.30;44.70;;;;;;5070314;28;20476;-88
2022/08/23 03:11:28;;;;;;;4.60;4.20;;;22.30;44.90;;;;;;5063713;28;20478;-87
2022/08/23 03:13:56;;;;;;;5.00;4.60;;;22.10;45.10;;;;;;5063758;28;20474;-87
2022/08/23 03:16:24;;;;;;;5.00;4.47;;;22.00;45.50;;;;;;5064517;28;20833;-88
2022/08/23 03:18:51;;;;;;;4.57;4.27;;;22.00;46.00;;;;;;5078472;28;20487;-88
2022/08/23 03:21:19;;;;;;;4.87;4.43;;;22.00;46.00;;;;;;5052495;28;21005;-88
2022/08/23 03:23:48;;;;;;;5.77;4.50;;;22.00;45.80;;;;;;5081412;28;20478;-89
2022/08/23 03:26:16;;;;;;;4.77;4.37;;;22.00;45.90;;;;;;5078569;28;20497;-88
2022/08/23 03:28:44;;;;;;;4.83;4.53;;;22.00;45.80;;;;;;5081240;28;20447;-88
2022/08/23 03:31:15;;;;;;;5.33;4.60;;;22.00;45.90;;;;;;5076817;28;20443;-86
2022/08/23 03:33:59;;;;;;;4.60;4.23;;;22.00;45.90;;;;;;5069072;28;20960;-87
2022/08/23 03:36:26;;;;;;;6.03;4.40;;;22.00;46.00;;;;;;5060069;28;20505;-87
2022/08/23 03:38:54;;;;;;;4.40;3.97;;;22.00;46.00;;;;;;5078882;28;20448;-88
2022/08/23 03:41:22;;;;;;;6.53;4.90;;;21.90;46.00;;;;;;5064383;28;20986;-88
2022/08/23 03:43:49;;;;;;;5.00;4.60;;;21.90;45.90;;;;;;5086050;28;20558;-87
2022/08/23 03:46:22;;;;;;;4.80;4.27;;;21.90;45.90;;;;;;5077548;28;20983;-88
2022/08/23 03:48:54;;;;;;;4.80;4.40;;;21.90;46.10;;;;;;5052377;28;20443;-88
2022/08/23 03:51:23;;;;;;;4.47;4.17;;;21.80;46.20;;;;;;5065960;28;20538;-87
2022/08/23 03:53:50;;;;;;;9.40;4.70;;;21.80;46.30;;;;;;5060056;28;20475;-89
2022/08/23 03:56:24;;;;;;;5.70;5.20;;;21.80;46.30;;;;;;5085783;28;20462;-88
2022/08/23 03:58:51;;;;;;;9.07;4.73;;;21.80;46.30;;;;;;5068643;28;20475;-87
2022/08/23 04:01:19;;;;;;;6.70;4.90;;;21.70;46.20;;;;;;5079231;28;20448;-88
2022/08/23 04:03:47;;;;;;;5.50;5.00;;;21.70;46.40;;;;;;5071102;28;21189;-88
2022/08/23 04:06:15;;;;;;;4.53;4.23;;;21.70;46.30;;;;;;5064569;28;20450;-88
2022/08/23 04:08:43;;;;;;;5.30;4.80;;;21.70;46.50;;;;;;5082203;28;20455;-88
2022/08/23 04:11:11;;;;;;;5.33;4.80;;;21.70;46.20;;;;;;5092820;28;20474;-88
2022/08/23 04:13:43;;;;;;;5.47;4.97;;;21.60;46.60;;;;;;5091679;28;21046;-88
2022/08/23 04:16:11;;;;;;;5.30;4.80;;;21.60;46.70;;;;;;5083465;28;20813;-88
2022/08/23 04:18:39;;;;;;;6.20;4.97;;;21.50;46.80;;;;;;5057539;28;20907;-88
2022/08/23 04:21:09;;;;;;;5.43;4.93;;;21.40;46.90;;;;;;5064853;28;20542;-88
2022/08/23 04:23:38;;;;;;;5.63;4.97;;;21.40;47.30;;;;;;5066896;28;20462;-88
2022/08/23 04:26:05;;;;;;;8.00;5.47;;;21.40;47.50;;;;;;5051232;28;20784;-87
2022/08/23 04:28:35;;;;;;;6.00;5.40;;;21.40;47.40;;;;;;5062836;28;20483;-88
2022/08/23 04:31:04;;;;;;;6.57;4.90;;;21.40;47.50;;;;;;5085576;28;20477;-89
2022/08/23 04:33:34;;;;;;;5.50;4.80;;;21.40;47.50;;;;;;5062823;28;20479;-85
2022/08/23 04:36:02;;;;;;;5.70;5.13;;;21.40;47.60;;;;;;5094946;28;20507;-85
2022/08/23 04:38:29;;;;;;;5.00;4.60;;;21.30;47.30;;;;;;5091531;28;20462;-86
2022/08/23 04:43:46;;;;;;;5.20;4.70;;;21.30;47.50;;;;;;5081536;28;20471;-86
2022/08/23 04:46:17;;;;;;;6.07;4.20;;;21.30;47.60;;;;;;5073394;28;20443;-85
2022/08/23 04:48:47;;;;;;;6.40;5.70;;;21.40;47.90;;;;;;5076424;28;20464;-86
2022/08/23 04:51:16;;;;;;;7.07;4.80;;;21.30;47.90;;;;;;5073786;28;20479;-86
2022/08/23 04:53:43;;;;;;;6.27;5.20;;;21.30;47.90;;;;;;5079322;28;20536;-84
2022/08/23 04:56:30;;;;;;;5.80;5.30;;;21.30;47.90;;;;;;5076429;28;20526;-85
2022/08/23 04:58:57;;;;;;;5.23;4.73;;;21.40;47.90;;;;;;5078479;28;20517;-85
2022/08/23 05:01:26;;;;;;;8.23;4.70;;;21.30;47.80;;;;;;5093214;28;20455;-85
2022/08/23 05:03:55;;;;;;;5.40;5.00;;;21.30;47.70;;;;;;5080144;28;20557;-84
2022/08/23 05:06:22;;;;;;;6.33;4.97;;;21.30;47.80;;;;;;5077215;28;20451;-87
2022/08/23 05:08:49;;;;;;;5.27;4.77;;;21.30;47.90;;;;;;5093051;28;20959;-86
2022/08/23 05:11:17;;;;;;;4.93;4.33;;;21.40;48.10;;;;;;5083849;28;20502;-85
2022/08/23 05:13:47;;;;;;;5.27;4.73;;;21.40;48.50;;;;;;5060960;28;21148;-86
2022/08/23 05:16:14;;;;;;;5.17;4.77;;;21.40;48.00;;;;;;5059036;28;20439;-86
2022/08/23 05:18:55;;;;;;;8.93;5.70;;;21.40;48.10;;;;;;5079219;28;21061;-85
2022/08/23 05:21:23;;;;;;;6.20;4.80;;;21.40;48.10;;;;;;5078490;28;20555;-86
2022/08/23 05:23:51;;;;;;;4.43;4.10;;;21.30;48.50;;;;;;5076723;28;20466;-87
2022/08/23 05:26:21;;;;;;;5.57;5.17;;;21.40;49.20;;;;;;5066724;28;20444;-87
2022/08/23 05:28:50;;;;;;;5.83;5.33;;;21.30;50.20;;;;;;5065449;28;20449;-88
2022/08/23 05:31:22;;;;;;;6.70;6.00;;;21.30;50.10;;;;;;5070988;28;20542;-87
2022/08/23 05:34:02;;;;;;;5.57;5.07;;;21.40;49.90;;;;;;5081835;28;21129;-87
2022/08/23 05:36:37;;;;;;;5.73;5.20;;;21.40;49.70;;;;;;5068213;28;20536;-88
2022/08/23 05:39:04;;;;;;;5.73;5.13;;;21.40;49.50;;;;;;5078964;28;20804;-88
2022/08/23 05:41:33;;;;;;;10.90;5.63;;;21.50;49.70;;;;;;5052989;28;20451;-88
2022/08/23 05:44:00;;;;;;;5.90;5.30;;;21.50;49.70;;;;;;5081907;28;20474;-88
2022/08/23 05:46:28;;;;;;;7.90;5.33;;;21.50;49.80;;;;;;5085174;28;20535;-88
2022/08/23 05:49:15;;;;;;;5.40;4.90;;;21.50;49.70;;;;;;5094948;28;20451;-89
2022/08/23 05:51:42;;;;;;;6.40;5.80;;;21.60;49.60;;;;;;5061319;28;20459;-88
2022/08/23 05:54:10;;;;;;;5.63;5.10;;;21.50;49.50;;;;;;5078243;28;20443;-88
2022/08/23 05:56:40;;;;;;;6.80;6.20;;;21.50;49.50;;;;;;5065634;28;20451;-87
2022/08/23 05:59:10;;;;;;;5.87;5.27;;;21.50;49.70;;;;;;5061154;28;20479;-87
2022/08/23 06:01:38;;;;;;;5.73;5.23;;;21.60;49.70;;;;;;5085981;28;21041;-87
2022/08/23 06:04:12;;;;;;;9.23;5.57;;;21.60;49.80;;;;;;5092391;28;20446;-87
2022/08/23 06:06:43;;;;;;;5.57;5.13;;;21.50;50.30;;;;;;5071832;28;20446;-88
2022/08/23 06:09:13;;;;;;;6.10;5.50;;;21.50;50.30;;;;;;5077332;28;20459;-87
2022/08/23 06:11:44;;;;;;;7.63;5.10;;;21.70;50.10;;;;;;5080823;28;20475;-87
2022/08/23 06:14:11;;;;;;;6.87;5.63;;;21.70;50.00;;;;;;5073784;28;20447;-86
2022/08/23 06:16:40;;;;;;;6.80;5.80;;;21.80;49.70;;;;;;5071239;28;20455;-87
2022/08/23 06:19:08;;;;;;;5.57;5.03;;;21.80;49.00;;;;;;5069818;28;20523;-87
2022/08/23 06:21:57;;;;;;;10.53;5.10;;;21.80;49.20;;;;;;5094694;28;20455;-88
2022/08/23 06:24:29;;;;;;;8.83;6.30;;;21.80;48.60;;;;;;5084034;28;20448;-87
2022/08/23 06:27:07;;;;;;;6.30;5.70;;;21.80;49.10;;;;;;5084654;28;20645;-87
2022/08/23 06:29:34;;;;;;;8.10;5.37;;;21.80;49.10;;;;;;5053070;28;20490;-88
2022/08/23 06:32:20;;;;;;;5.13;4.67;;;21.90;49.60;;;;;;5076867;28;20474;-87
2022/08/23 06:35:10;;;;;;;8.00;4.90;;;21.90;49.50;;;;;;5043186;28;20451;-87
2022/08/23 06:38:02;;;;;;;7.00;5.13;;;21.90;49.60;;;;;;5077306;28;20443;-87
2022/08/23 06:40:48;;;;;;;11.70;5.00;;;22.10;49.50;;;;;;5094668;28;20465;-89
2022/08/23 06:43:31;;;;;;;7.20;6.27;;;22.20;49.20;;;;;;5078603;28;20475;-87
2022/08/23 06:46:38;;;;;;;8.00;4.93;;;22.30;48.90;;;;;;4990209;28;20463;-87
2022/08/23 06:49:06;;;;;;;7.60;4.90;;;22.40;48.30;;;;;;4976898;28;20444;-87
2022/08/23 06:51:35;;;;;;;10.70;6.40;;;22.50;48.00;;;;;;5023534;28;20521;-87
2022/08/23 06:54:16;;;;;;;5.77;4.93;;;22.40;48.00;;;;;;5044547;28;20937;-87
2022/08/23 06:57:08;;;;;;;8.23;4.77;;;22.50;48.90;;;;;;5080211;28;20953;-88
2022/08/23 06:59:59;;;;;;;6.03;5.50;;;22.50;48.80;;;;;;5068104;28;20538;-87
2022/08/23 07:02:56;;;;;;;15.67;5.67;;;22.60;48.60;;;;;;5053067;28;20463;-88
2022/08/23 07:05:50;;;;;;;19.77;5.40;;;22.70;48.20;;;;;;5095867;28;20516;-87
2022/08/23 07:08:26;;;;;;;15.97;5.17;;;22.80;48.20;;;;;;5080353;28;20454;-88
2022/08/23 07:10:57;;;;;;;12.67;6.57;;;22.90;48.40;;;;;;5060856;28;20463;-87
2022/08/23 07:13:25;;;;;;;13.33;5.20;;;22.90;47.60;;;;;;5062261;28;20464;-87
2022/08/23 07:15:56;;;;;;;10.23;4.80;;;22.90;47.50;;;;;;5068398;28;20431;-87
2022/08/23 07:18:24;;;;;;;14.77;5.97;;;23.00;47.30;;;;;;5085369;28;20454;-89
2022/08/23 07:20:55;;;;;;;10.10;5.10;;;23.00;47.00;;;;;;5069060;28;20451;-87
2022/08/23 07:23:23;;;;;;;14.00;5.43;;;23.10;47.10;;;;;;5085136;28;20503;-89
2022/08/23 07:25:50;;;;;;;6.33;4.53;;;23.20;47.40;;;;;;5056811;28;20511;-88
2022/08/23 07:28:21;;;;;;;11.93;5.10;;;23.30;47.30;;;;;;5074762;28;20447;-90
2022/08/23 07:30:49;;;;;;;13.30;4.90;;;23.30;47.10;;;;;;5066248;28;20463;-88
2022/08/23 07:33:17;;;;;;;5.53;4.90;;;23.50;46.80;;;;;;5047066;28;20646;-87
2022/08/23 07:36:05;;;;;;;8.40;5.03;;;23.70;46.20;;;;;;5060873;28;20443;-88
2022/08/23 07:38:33;;;;;;;8.83;5.17;;;23.80;46.40;;;;;;5068581;28;20490;-90
2022/08/23 07:41:02;;;;;;;5.20;3.97;;;24.10;46.10;;;;;;5068079;28;20457;-86
2022/08/23 07:43:32;;;;;;;5.97;4.30;;;24.20;45.40;;;;;;5074515;28;21046;-88
2022/08/23 07:46:00;;;;;;;5.60;4.23;;;24.30;45.50;;;;;;5067485;28;20461;-86
2022/08/23 07:48:27;;;;;;;6.40;3.90;;;24.50;45.30;;;;;;5070937;28;20452;-86
2022/08/23 07:51:13;;;;;;;11.80;4.50;;;24.60;45.10;;;;;;5070755;28;20458;-86
2022/08/23 07:53:40;;;;;;;12.57;4.73;;;24.70;44.70;;;;;;5071390;28;20482;-86
2022/08/23 07:56:10;;;;;;;11.13;4.43;;;24.80;44.70;;;;;;5071955;28;20837;-86
2022/08/23 07:59:02;;;;;;;5.80;4.70;;;24.90;44.60;;;;;;5071362;28;20477;-86
2022/08/23 08:01:43;;;;;;;5.60;3.80;;;25.00;44.60;;;;;;5081600;28;20509;-86
2022/08/23 08:04:11;;;;;;;13.00;4.87;;;25.00;44.40;;;;;;5070884;28;20467;-87
2022/08/23 08:06:42;;;;;;;5.50;4.97;;;25.20;44.40;;;;;;5080024;28;20528;-86
2022/08/23 08:09:11;;;;;;;8.53;4.90;;;25.30;44.20;;;;;;5073842;28;20530;-88
2022/08/23 08:11:42;;;;;;;4.90;4.20;;;25.10;43.30;;;;;;5055272;28;20462;-86
2022/08/23 08:14:11;;;;;;;4.30;4.00;;;25.20;43.40;;;;;;5070709;28;21238;-88
2022/08/23 08:16:49;;;;;;;4.63;4.23;;;25.30;43.30;;;;;;5069016;28;21216;-87
2022/08/23 08:19:22;;;;;;;3.53;3.20;;;25.50;43.30;;;;;;5070265;28;20473;-89
2022/08/23 08:22:27;;;;;;;4.10;3.30;;;25.60;42.40;;;;;;5088257;28;20470;-87
2022/08/23 08:25:12;;;;;;;6.53;3.47;;;25.50;42.10;;;;;;5086038;28;20454;-84
2022/08/23 08:27:41;;;;;;;3.83;3.53;;;25.60;42.00;;;;;;5080397;28;21309;-87
2022/08/23 08:30:12;;;;;;;6.63;3.73;;;25.80;41.00;;;;;;5077531;28;20470;-87
2022/08/23 08:32:40;;;;;;;5.83;3.30;;;26.00;40.70;;;;;;5091374;28;20481;-88
2022/08/23 08:35:09;;;;;;;5.77;3.50;;;26.10;40.10;;;;;;5064948;28;20455;-88
2022/08/23 08:37:38;;;;;;;4.13;3.50;;;26.30;40.60;;;;;;5078205;28;20521;-89
2022/08/23 08:40:07;;;;;;;3.73;3.30;;;26.30;38.90;;;;;;5087185;28;20481;-86
2022/08/23 08:42:53;;;;;;;3.00;2.80;;;26.50;39.00;;;;;;5064312;28;20474;-86
2022/08/23 08:45:25;;;;;;;3.23;2.83;;;26.60;37.60;;;;;;5056577;28;20981;-88
2022/08/23 08:47:57;;;;;;;3.20;2.90;;;26.60;38.00;;;;;;5072663;28;20573;-87
2022/08/23 08:50:36;;;;;;;3.10;2.80;;;26.80;37.30;;;;;;5058012;28;20451;-87
2022/08/23 08:53:09;;;;;;;4.17;2.80;;;26.70;36.90;;;;;;5069300;28;20524;-88
2022/08/23 08:55:58;;;;;;;7.80;3.43;;;26.80;37.40;;;;;;5084090;28;20454;-89
2022/08/23 08:58:30;;;;;;;3.40;2.67;;;27.00;37.60;;;;;;5063993;28;20524;-88
2022/08/23 09:00:59;;;;;;;2.97;2.73;;;27.10;35.60;;;;;;5044109;28;20451;-88
2022/08/23 09:03:29;;;;;;;2.73;2.53;;;27.30;35.10;;;;;;5061541;28;21485;-88
2022/08/23 09:06:01;;;;;;;4.30;3.03;;;27.40;35.10;;;;;;5059223;28;20444;-88
2022/08/23 09:08:48;;;;;;;3.57;2.93;;;27.60;36.00;;;;;;5071556;28;20451;-87
2022/08/23 09:11:26;;;;;;;2.67;2.47;;;27.70;33.80;;;;;;5077320;28;21317;-87
2022/08/23 09:14:18;;;;;;;4.47;3.20;;;27.70;33.80;;;;;;5091544;28;20471;-85
2022/08/23 09:16:51;;;;;;;2.50;2.17;;;27.80;33.80;;;;;;5059094;28;20992;-88
2022/08/23 09:19:20;;;;;;;2.77;2.57;;;27.80;33.60;;;;;;5076446;28;20497;-87
2022/08/23 09:21:56;;;;;;;3.30;2.80;;;27.90;33.90;;;;;;5057651;28;20455;-88
2022/08/23 09:24:25;;;;;;;3.30;2.97;;;28.10;33.40;;;;;;5056841;28;20925;-87
2022/08/23 09:27:04;;;;;;;3.00;2.47;;;28.40;33.60;;;;;;5045427;28;20440;-89
2022/08/23 09:29:34;;;;;;;4.63;4.23;;;28.70;32.80;;;;;;5055698;28;20462;-87
2022/08/23 09:32:06;;;;;;;3.03;2.83;;;28.80;31.50;;;;;;5074470;28;20506;-87
2022/08/23 09:34:42;;;;;;;3.60;3.10;;;28.60;31.90;;;;;;5078668;28;20516;-88
2022/08/23 09:37:16;;;;;;;3.37;2.67;;;28.70;32.30;;;;;;5075492;28;20451;-87
2022/08/23 09:39:47;;;;;;;3.00;2.70;;;28.80;32.40;;;;;;5076734;28;20455;-87
2022/08/23 09:42:35;;;;;;;2.60;2.33;;;29.00;31.40;;;;;;5093625;28;20471;-88
2022/08/23 09:45:05;;;;;;;3.77;2.70;;;29.10;31.60;;;;;;5068187;28;20460;-88
2022/08/23 09:47:35;;;;;;;3.47;2.63;;;29.10;31.30;;;;;;5072846;28;20947;-89
2022/08/23 09:50:17;;;;;;;3.00;2.80;;;29.20;31.50;;;;;;5083604;28;20504;-88
2022/08/23 09:52:47;;;;;;;3.90;2.67;;;29.70;30.70;;;;;;5060534;28;20511;-89
2022/08/23 09:55:28;;;;;;;3.53;3.13;;;29.90;30.40;;;;;;5085219;28;20466;-88
2022/08/23 09:57:55;;;;;;;3.83;3.00;;;29.90;30.40;;;;;;5059174;28;20744;-89
2022/08/23 10:00:26;;;;;;;3.17;2.67;;;30.10;30.50;;;;;;5083659;28;20463;-88
2022/08/23 10:03:20;;;;;;;4.43;2.80;;;30.30;30.30;;;;;;5060477;28;20470;-87
2022/08/23 10:05:52;;;;;;;4.80;2.90;;;30.40;29.60;;;;;;5066924;28;21158;-89
2022/08/23 10:08:27;;;;;;;2.80;2.60;;;30.40;29.50;;;;;;5075073;28;20457;-87
2022/08/23 10:11:01;;;;;;;3.90;2.77;;;30.30;29.80;;;;;;5062709;28;20446;-87
2022/08/23 10:13:32;;;;;;;4.40;2.80;;;30.40;29.90;;;;;;5055100;28;20568;-87
2022/08/23 10:16:09;;;;;;;4.50;2.73;;;30.60;29.80;;;;;;5077767;28;20883;-87
2022/08/23 10:18:54;;;;;;;5.60;2.47;;;30.90;29.20;;;;;;5072753;28;20974;-88
2022/08/23 10:21:29;;;;;;;5.53;2.90;;;31.00;29.10;;;;;;5072662;28;20431;-87
2022/08/23 10:24:18;;;;;;;2.83;2.53;;;31.20;29.20;;;;;;5076244;28;20493;-88
2022/08/23 10:26:59;;;;;;;5.77;2.60;;;31.60;29.00;;;;;;5085765;28;20438;-86
2022/08/23 10:29:36;;;;;;;6.50;2.70;;;32.00;28.10;;;;;;5075002;28;20976;-87
2022/08/23 10:32:14;;;;;;;3.07;2.50;;;32.10;27.40;;;;;;5074343;28;20493;-87
2022/08/23 10:35:05;;;;;;;4.20;2.80;;;32.00;27.20;;;;;;5058096;28;20470;-88
2022/08/23 10:37:51;;;;;;;4.50;2.50;;;31.90;27.70;;;;;;5072967;28;21854;-88
2022/08/23 10:40:27;;;;;;;2.90;2.63;;;32.10;27.90;;;;;;5075250;28;20471;-88
2022/08/23 10:43:12;;;;;;;3.10;2.60;;;32.30;28.30;;;;;;5066271;28;20579;-89
2022/08/23 10:45:41;;;;;;;3.33;2.90;;;32.20;27.20;;;;;;5066088;28;20447;-87
2022/08/23 10:48:27;;;;;;;4.17;2.40;;;32.20;27.20;;;;;;5073753;28;21021;-88
2022/08/23 10:51:00;;;;;;;4.20;2.70;;;32.20;26.90;;;;;;5066648;28;20543;-87
2022/08/23 10:53:36;;;;;;;2.50;2.30;;;32.40;27.30;;;;;;5064804;28;20487;-87
2022/08/23 10:56:05;;;;;;;2.30;2.10;;;32.80;26.90;;;;;;5060567;28;20447;-87
2022/08/23 10:58:47;;;;;;;5.73;2.50;;;33.10;25.10;;;;;;5061407;28;20455;-86
2022/08/23 11:01:18;;;;;;;2.93;2.50;;;33.10;25.30;;;;;;5072004;28;20510;-87
2022/08/23 11:03:56;;;;;;;9.63;2.70;;;33.20;26.10;;;;;;5081458;28;20467;-88
2022/08/23 11:06:53;;;;;;;3.97;2.50;;;33.50;25.10;;;;;;5081249;28;20446;-87
2022/08/23 11:09:53;;;;;;;3.90;2.90;;;33.80;25.30;;;;;;5071039;28;21248;-88
2022/08/23 11:12:32;;;;;;;2.33;2.13;;;33.90;24.70;;;;;;5070624;28;20486;-87
2022/08/23 11:15:13;;;;;;;1.90;1.80;;;34.10;24.90;;;;;;5074153;28;20537;-88
2022/08/23 11:18:05;;;;;;;3.07;2.87;;;34.10;24.50;;;;;;5076030;28;20458;-88
2022/08/23 11:20:58;;;;;;;3.00;2.00;;;34.00;24.60;;;;;;5070605;28;20435;-91
2022/08/23 11:23:42;;;;;;;3.40;2.00;;;34.40;24.20;;;;;;5075667;28;21006;-87
2022/08/23 11:26:35;;;;;;;2.50;2.30;;;34.50;24.00;;;;;;5092293;28;21002;-87
2022/08/23 11:29:29;;;;;;;2.40;2.20;;;34.40;23.60;;;;;;5053313;28;20466;-88
2022/08/23 11:32:42;;;;;;;7.10;2.37;;;34.50;23.60;;;;;;5096823;28;21013;-88
2022/08/23 11:35:37;;;;;;;3.03;2.70;;;34.30;23.60;;;;;;5058145;28;20455;-88
2022/08/23 11:38:05;;;;;;;2.97;2.43;;;33.90;24.30;;;;;;5062842;28;20447;-88
2022/08/23 11:40:58;;;;;;;3.10;2.43;;;34.20;24.10;;;;;;5054890;28;20442;-88
2022/08/23 11:43:33;;;;;;;3.00;2.70;;;34.20;24.00;;;;;;5064537;28;20462;-88
2022/08/23 11:46:33;;;;;;;10.70;2.90;;;34.30;24.20;;;;;;5060088;28;20692;-89
2022/08/23 11:49:48;;;;;;;2.63;2.43;;;34.70;24.10;;;;;;5015939;28;20488;-89
2022/08/23 11:52:37;;;;;;;4.70;2.77;;;34.80;22.80;;;;;;5032489;28;20855;-89
2022/08/23 11:55:18;;;;;;;3.03;2.50;;;34.70;22.90;;;;;;5063523;28;20511;-86
2022/08/23 11:58:00;;;;;;;2.50;2.30;;;34.70;23.50;;;;;;5065836;28;20924;-87
2022/08/23 12:00:52;;;;;;;6.83;2.87;;;35.20;23.70;;;;;;5055178;28;20470;-86
2022/08/23 12:03:32;;;;;;;2.97;2.67;;;35.30;23.50;;;;;;5054237;28;20462;-87
2022/08/23 12:06:12;;;;;;;2.63;2.43;;;35.60;22.40;;;;;;5068800;28;20481;-88
2022/08/23 12:08:52;;;;;;;2.80;2.40;;;35.60;22.70;;;;;;5043390;28;20451;-88
2022/08/23 12:11:21;;;;;;;4.47;2.90;;;34.90;22.90;;;;;;5066834;28;20443;-88
2022/08/23 12:13:56;;;;;;;3.77;2.40;;;34.70;24.10;;;;;;5060125;28;20470;-88
2022/08/23 12:16:37;;;;;;;10.30;2.80;;;34.80;23.80;;;;;;5054152;28;20446;-87
2022/08/23 12:19:11;;;;;;;4.17;2.67;;;34.80;23.60;;;;;;5068987;28;20551;-88
2022/08/23 12:21:45;;;;;;;6.37;2.70;;;34.70;22.60;;;;;;5085660;28;20439;-88
2022/08/23 12:24:18;;;;;;;3.60;2.37;;;34.70;23.20;;;;;;5056963;28;20463;-89
2022/08/23 12:26:52;;;;;;;3.83;2.23;;;34.80;22.70;;;;;;5080385;28;20955;-88
2022/08/23 12:29:33;;;;;;;2.80;2.50;;;34.70;23.30;;;;;;5071356;28;20455;-88
2022/08/23 12:32:10;;;;;;;5.10;2.70;;;35.10;23.90;;;;;;5059361;28;20463;-89
2022/08/23 12:34:49;;;;;;;4.73;2.47;;;35.60;23.60;;;;;;5056958;28;20454;-88
2022/08/23 12:37:24;;;;;;;2.80;2.60;;;36.10;23.00;;;;;;5055662;28;20454;-88
2022/08/23 12:39:55;;;;;;;6.63;2.80;;;35.60;22.40;;;;;;5054727;28;20638;-92
2022/08/23 12:42:27;;;;;;;10.97;3.27;;;34.90;22.90;;;;;;5080779;28;20467;-88
2022/08/23 12:45:07;;;;;;;4.27;2.60;;;34.90;22.80;;;;;;5072865;28;20439;-89
2022/08/23 12:47:35;;;;;;;2.57;2.37;;;34.90;24.20;;;;;;5050504;28;20439;-89
2022/08/23 12:50:09;;;;;;;2.90;2.60;;;35.40;22.70;;;;;;5052342;28;21024;-90
2022/08/23 12:52:37;;;;;;;2.73;2.53;;;35.60;22.30;;;;;;5070442;28;20525;-91
2022/08/23 12:55:14;;;;;;;2.83;2.43;;;35.90;23.10;;;;;;5047555;28;20539;-89
2022/08/23 12:57:44;;;;;;;4.17;2.50;;;36.30;22.40;;;;;;5065800;28;20501;-88
2022/08/23 13:00:20;;;;;;;4.33;2.67;;;36.20;22.10;;;;;;5065617;28;20974;-89
2022/08/23 13:02:54;;;;;;;3.13;2.73;;;36.30;22.10;;;;;;5066149;28;20463;-88
2022/08/23 13:05:31;;;;;;;3.73;2.77;;;36.30;21.90;;;;;;5048037;28;20455;-88
2022/08/23 13:08:01;;;;;;;3.50;2.70;;;36.30;21.70;;;;;;5084962;28;20496;-88
2022/08/23 13:10:29;;;;;;;2.27;2.13;;;36.30;22.30;;;;;;5058322;28;20966;-88
2022/08/23 13:12:56;;;;;;;5.17;2.73;;;36.50;22.20;;;;;;5071374;28;20471;-88
2022/08/23 13:15:50;;;;;;;3.50;2.40;;;36.70;21.30;;;;;;5062510;28;20515;-90
2022/08/23 13:18:32;;;;;;;3.50;2.80;;;36.10;21.70;;;;;;5045941;28;21026;-89
2022/08/23 13:21:24;;;;;;;2.90;2.63;;;35.50;22.50;;;;;;5069630;28;20958;-91
2022/08/23 13:23:53;;;;;;;2.80;2.60;;;35.60;22.50;;;;;;5054908;28;20471;-89
2022/08/23 13:26:42;;;;;;;2.30;2.10;;;35.90;22.60;;;;;;5064394;28;20452;-90
2022/08/23 13:29:13;;;;;;;5.60;3.20;;;36.10;22.10;;;;;;5044568;28;20479;-88